Time;durP1;ratioP1;P1;durP2;ratioP2;P2;SDS_P1;SDS_P2;PMS_P1;PMS_P2;Temp;Humidity;BMP_temperature;BMP_pressure;BME280_temperature;BME280_humidity;BME280_pressure;Samples;Min_cycle;Max_cycle;Signal;HPM_P1;HPM_P2
2021/11/06 00:01:44;;;;;;;34.25;17.08;;;10.10;99.90;;;;;;5064292;28;20056;-87
2021/11/06 00:04:12;;;;;;;30.38;15.68;;;10.00;99.90;;;;;;5079642;28;20048;-86
2021/11/06 00:06:44;;;;;;;36.25;16.08;;;10.00;99.90;;;;;;5085463;28;20119;-87
2021/11/06 00:09:13;;;;;;;31.60;17.40;;;10.10;99.90;;;;;;5031244;28;20049;-89
2021/11/06 00:11:45;;;;;;;33.30;16.15;;;10.10;99.90;;;;;;5061935;28;20060;-88
2021/11/06 00:14:17;;;;;;;30.55;14.85;;;9.00;99.90;;;;;;5048198;28;20049;-87
2021/11/06 00:16:55;;;;;;;27.37;14.40;;;10.10;99.90;;;;;;5080993;28;20054;-88
2021/11/06 00:19:30;;;;;;;28.10;13.02;;;10.20;99.90;;;;;;5098657;28;20301;-88
2021/11/06 00:21:59;;;;;;;30.75;14.48;;;10.10;99.90;;;;;;4703568;28;10000589;-90
2021/11/06 00:24:27;;;;;;;27.52;13.70;;;10.10;99.90;;;;;;5056636;28;20418;-88
2021/11/06 00:26:56;;;;;;;30.27;14.57;;;10.40;99.90;;;;;;5077329;28;20045;-87
2021/11/06 00:29:25;;;;;;;25.95;13.20;;;10.10;99.90;;;;;;5074312;28;20048;-90
2021/11/06 00:31:55;;;;;;;30.10;13.23;;;10.10;99.90;;;;;;5058457;28;20537;-87
2021/11/06 00:34:24;;;;;;;24.08;13.07;;;10.10;99.90;;;;;;5045024;28;20063;-88
2021/11/06 00:36:53;;;;;;;35.70;13.05;;;10.10;99.90;;;;;;5061837;28;20056;-90
2021/11/06 00:39:22;;;;;;;30.27;13.82;;;10.10;99.90;;;;;;5060942;28;20583;-88
2021/11/06 00:41:52;;;;;;;27.27;12.50;;;10.10;99.90;;;;;;5046155;28;20447;-90
2021/11/06 00:44:27;;;;;;;28.85;12.80;;;10.00;99.90;;;;;;5055077;28;20052;-90
2021/11/06 00:46:58;;;;;;;23.88;12.57;;;10.00;99.90;;;;;;5056620;28;20209;-87
2021/11/06 00:49:30;;;;;;;23.95;12.52;;;9.90;99.90;;;;;;5075326;28;20040;-88
2021/11/06 00:52:02;;;;;;;26.17;11.70;;;9.90;99.90;;;;;;5059159;28;20048;-87
2021/11/06 00:54:29;;;;;;;28.88;10.98;;;9.90;99.90;;;;;;5031772;28;20040;-89
2021/11/06 00:56:59;;;;;;;29.80;11.05;;;9.80;99.90;;;;;;5060944;28;20059;-88
2021/11/06 00:59:27;;;;;;;27.35;11.32;;;9.80;99.90;;;;;;5078720;28;20056;-87
2021/11/06 01:02:01;;;;;;;28.95;11.32;;;9.70;99.90;;;;;;5062244;28;20057;-88
2021/11/06 01:04:32;;;;;;;25.20;13.60;;;9.70;99.90;;;;;;5046791;28;20040;-89
2021/11/06 01:07:01;;;;;;;23.27;11.10;;;9.60;99.90;;;;;;5046451;28;20052;-88
2021/11/06 01:09:29;;;;;;;31.58;10.75;;;9.60;99.90;;;;;;5074403;28;20049;-88
2021/11/06 01:11:59;;;;;;;24.60;13.52;;;9.60;99.90;;;;;;5078384;28;20055;-87
2021/11/06 01:14:28;;;;;;;25.52;12.13;;;9.70;99.90;;;;;;5046671;28;20045;-87
2021/11/06 01:16:58;;;;;;;36.40;14.55;;;9.50;99.90;;;;;;5062916;28;20052;-88
2021/11/06 01:19:27;;;;;;;32.70;16.33;;;9.50;99.90;;;;;;5076816;28;20045;-91
2021/11/06 01:21:59;;;;;;;36.22;12.77;;;9.50;99.90;;;;;;5053259;28;20388;-87
2021/11/06 01:24:29;;;;;;;25.13;12.02;;;9.50;99.90;;;;;;5073463;28;20044;-88
2021/11/06 01:26:58;;;;;;;25.95;11.88;;;9.40;99.90;;;;;;5046205;28;20049;-88
2021/11/06 01:29:28;;;;;;;20.83;10.43;;;9.40;99.90;;;;;;5061420;28;20062;-90
2021/11/06 01:32:00;;;;;;;23.40;10.40;;;9.40;99.90;;;;;;5046053;28;20041;-89
2021/11/06 01:34:29;;;;;;;29.00;13.05;;;9.70;99.90;;;;;;5044944;28;20045;-88
2021/11/06 01:36:57;;;;;;;20.75;9.60;;;9.50;99.90;;;;;;5071259;28;20040;-88
2021/11/06 01:39:27;;;;;;;22.75;8.93;;;9.60;99.90;;;;;;5068352;28;20119;-88
2021/11/06 01:41:57;;;;;;;16.70;10.30;;;9.50;99.90;;;;;;5047545;28;20514;-88
2021/11/06 01:44:30;;;;;;;18.80;9.45;;;9.60;99.90;;;;;;5051002;28;20048;-90
2021/11/06 01:46:58;;;;;;;;;;;9.70;99.90;;;;;;5082975;28;20044;-92
2021/11/06 01:49:28;;;;;;;23.85;8.15;;;9.70;99.90;;;;;;5067484;28;19924;-89
2021/11/06 01:52:08;;;;;;;25.30;7.43;;;9.70;99.90;;;;;;5053113;28;20059;-88
2021/11/06 01:54:39;;;;;;;12.88;5.85;;;9.80;99.90;;;;;;5036223;28;20356;-89
2021/11/06 01:57:10;;;;;;;17.85;7.80;;;9.80;99.90;;;;;;5083565;28;20055;-89
2021/11/06 01:59:40;;;;;;;15.82;8.52;;;9.90;99.90;;;;;;5067589;28;20048;-88
2021/11/06 02:02:14;;;;;;;22.25;7.95;;;10.50;99.90;;;;;;5066103;28;20052;-89
2021/11/06 02:04:46;;;;;;;18.52;7.13;;;10.10;99.90;;;;;;5047586;28;20036;-87
2021/11/06 02:07:19;;;;;;;17.00;6.05;;;10.10;99.90;;;;;;5049062;28;20056;-88
2021/11/06 02:09:50;;;;;;;16.15;7.05;;;10.10;99.90;;;;;;5045597;28;20248;-88
2021/11/06 02:12:21;;;;;;;;;;;10.10;99.90;;;;;;5049157;28;20053;-92
2021/11/06 02:14:49;;;;;;;21.48;6.93;;;10.20;99.90;;;;;;5062960;28;19929;-90
2021/11/06 02:17:19;;;;;;;23.10;6.63;;;10.30;99.90;;;;;;5047423;28;20049;-89
2021/11/06 02:19:49;;;;;;;11.05;5.22;;;9.40;99.90;;;;;;5068026;28;20100;-89
2021/11/06 02:22:17;;;;;;;18.15;6.82;;;10.20;99.90;;;;;;5063566;28;20063;-90
2021/11/06 02:24:45;;;;;;;12.98;6.40;;;10.30;99.90;;;;;;5065269;28;20045;-90
2021/11/06 02:27:14;;;;;;;17.48;6.78;;;10.30;99.90;;;;;;5054979;28;20053;-90
2021/11/06 02:29:43;;;;;;;11.50;5.60;;;10.30;99.90;;;;;;5061909;28;20055;-92
2021/11/06 02:32:16;;;;;;;16.85;5.65;;;10.40;99.90;;;;;;5071587;28;20546;-89
2021/11/06 02:34:44;;;;;;;11.18;5.60;;;10.40;99.90;;;;;;5082835;28;20048;-91
2021/11/06 02:37:15;;;;;;;12.77;5.35;;;10.50;99.90;;;;;;5048680;28;20056;-92
2021/11/06 02:39:45;;;;;;;12.43;5.15;;;10.50;99.90;;;;;;5050972;28;20056;-90
2021/11/06 02:42:14;;;;;;;18.00;7.65;;;10.50;99.90;;;;;;5068437;28;20052;-90
2021/11/06 02:44:44;;;;;;;14.10;5.45;;;10.50;99.90;;;;;;5065688;28;20056;-91
2021/11/06 02:47:14;;;;;;;22.45;7.25;;;10.50;99.90;;;;;;5046995;28;20057;-90
2021/11/06 02:49:44;;;;;;;15.37;5.63;;;10.60;99.90;;;;;;5081798;28;20040;-89
2021/11/06 02:52:14;;;;;;;15.30;6.05;;;10.60;99.90;;;;;;5062615;28;20056;-92
2021/11/06 02:54:45;;;;;;;;;;;10.60;99.90;;;;;;5085345;28;20032;-91
2021/11/06 02:57:13;;;;;;;12.23;5.30;;;10.60;99.90;;;;;;5051016;28;20184;-91
2021/11/06 02:59:43;;;;;;;16.25;6.55;;;10.60;99.90;;;;;;5066842;28;20047;-89
2021/11/06 03:02:12;;;;;;;16.17;7.47;;;10.60;99.90;;;;;;5084511;28;20044;-91
2021/11/06 03:04:41;;;;;;;17.90;6.63;;;10.60;99.90;;;;;;5067154;28;20052;-91
2021/11/06 03:07:10;;;;;;;18.58;7.03;;;10.60;99.90;;;;;;5100070;28;20048;-91
2021/11/06 03:09:39;;;;;;;15.48;5.65;;;10.60;99.90;;;;;;5081280;28;20055;-90
2021/11/06 03:12:11;;;;;;;15.48;5.90;;;10.60;99.90;;;;;;5074175;28;20063;-91
2021/11/06 03:14:46;;;;;;;17.50;6.07;;;10.60;99.90;;;;;;5065682;28;20053;-90
2021/11/06 03:17:14;;;;;;;14.07;6.68;;;10.60;99.90;;;;;;5044447;28;20052;-92
2021/11/06 03:19:43;;;;;;;14.13;6.60;;;10.60;99.90;;;;;;5034730;28;20045;-91
2021/11/06 03:22:13;;;;;;;21.90;8.52;;;10.60;99.90;;;;;;5064572;28;20049;-90
2021/11/06 03:24:44;;;;;;;15.38;6.18;;;10.60;99.90;;;;;;5068432;28;20061;-90
2021/11/06 03:27:25;;;;;;;23.40;7.05;;;10.60;99.90;;;;;;5048804;28;20060;-91
2021/11/06 03:29:55;;;;;;;19.75;6.53;;;10.60;99.90;;;;;;5065883;28;20054;-90
2021/11/06 03:32:23;;;;;;;13.75;7.50;;;10.60;99.90;;;;;;5064280;28;20049;-90
2021/11/06 03:34:52;;;;;;;15.50;6.18;;;10.60;99.90;;;;;;5065503;28;20055;-91
2021/11/06 03:37:21;;;;;;;15.68;7.50;;;10.60;99.90;;;;;;5064476;28;20071;-90
2021/11/06 03:39:50;;;;;;;21.85;6.55;;;10.60;99.90;;;;;;5064812;28;20048;-89
2021/11/06 03:42:18;;;;;;;16.80;6.32;;;10.60;99.90;;;;;;5065515;28;20063;-90
2021/11/06 03:44:47;;;;;;;17.48;7.97;;;10.60;99.90;;;;;;5045546;28;20195;-92
2021/11/06 03:47:28;;;;;;;16.35;6.53;;;10.60;99.90;;;;;;5082090;28;20040;-88
2021/11/06 03:49:58;;;;;;;;;;;10.50;99.90;;;;;;5063569;28;20048;-90
2021/11/06 03:52:31;;;;;;;17.80;6.47;;;11.20;99.90;;;;;;5080349;28;19935;-89
2021/11/06 03:55:02;;;;;;;16.20;6.93;;;10.60;99.90;;;;;;5047855;28;20056;-90
2021/11/06 03:57:31;;;;;;;15.90;7.07;;;10.60;99.90;;;;;;5044787;28;20074;-89
2021/11/06 04:00:02;;;;;;;16.87;7.70;;;10.60;99.90;;;;;;5061442;28;20298;-90
2021/11/06 04:02:32;;;;;;;22.92;6.50;;;10.60;99.90;;;;;;5065452;28;20053;-90
2021/11/06 04:05:02;;;;;;;13.75;7.03;;;10.60;99.90;;;;;;5057547;28;20393;-92
2021/11/06 04:07:32;;;;;;;14.90;6.95;;;10.60;99.90;;;;;;5076585;28;20048;-89
2021/11/06 04:10:00;;;;;;;20.67;7.68;;;10.60;99.90;;;;;;5042712;28;20071;-89
2021/11/06 04:12:31;;;;;;;19.83;6.85;;;10.60;99.90;;;;;;5040784;28;20052;-89
2021/11/06 04:15:01;;;;;;;14.45;6.35;;;10.60;99.90;;;;;;5085245;28;20049;-91
2021/11/06 04:17:29;;;;;;;28.17;7.53;;;10.60;99.90;;;;;;5045099;28;20060;-90
2021/11/06 04:20:00;;;;;;;14.57;6.97;;;10.60;99.90;;;;;;5064530;28;20134;-91
2021/11/06 04:22:32;;;;;;;17.50;6.90;;;10.60;99.90;;;;;;5063866;28;20045;-90
2021/11/06 04:25:03;;;;;;;16.88;7.57;;;10.60;99.90;;;;;;5061985;28;20048;-90
2021/11/06 04:27:32;;;;;;;17.63;8.75;;;10.60;99.90;;;;;;5064804;28;20056;-91
2021/11/06 04:30:04;;;;;;;22.05;7.30;;;10.30;99.90;;;;;;5066123;28;20048;-90
2021/11/06 04:32:33;;;;;;;17.02;7.03;;;10.60;99.90;;;;;;5081890;28;20045;-89
2021/11/06 04:35:02;;;;;;;20.48;7.18;;;10.60;99.90;;;;;;5067048;28;20043;-90
2021/11/06 04:37:33;;;;;;;21.67;7.72;;;10.60;99.90;;;;;;5082768;28;20062;-91
2021/11/06 04:40:10;;;;;;;15.25;6.93;;;10.60;99.90;;;;;;5080664;28;20063;-90
2021/11/06 04:42:39;;;;;;;15.02;7.43;;;10.50;99.90;;;;;;5081918;28;20048;-90
2021/11/06 04:45:09;;;;;;;19.25;6.57;;;10.50;99.90;;;;;;5051809;28;20067;-91
2021/11/06 04:47:39;;;;;;;15.77;6.40;;;10.50;99.90;;;;;;5081932;28;20049;-91
2021/11/06 04:50:10;;;;;;;17.80;7.13;;;10.50;99.90;;;;;;5062326;28;20510;-91
2021/11/06 04:52:40;;;;;;;17.15;7.45;;;10.50;99.90;;;;;;5081802;28;20048;-90
2021/11/06 04:55:13;;;;;;;15.27;7.40;;;10.60;99.90;;;;;;5063437;28;20060;-90
2021/11/06 04:57:42;;;;;;;;;;;10.50;99.90;;;;;;5047521;28;20044;-92
2021/11/06 05:00:13;;;;;;;12.80;7.07;;;10.10;99.90;;;;;;5066809;28;19929;-89
2021/11/06 05:02:42;;;;;;;25.83;9.02;;;10.50;99.90;;;;;;5094473;28;20045;-89
2021/11/06 05:05:13;;;;;;;;;;;10.50;99.90;;;;;;5064681;28;20053;-91
2021/11/06 05:07:44;;;;;;;15.40;7.70;;;10.50;99.90;;;;;;5032954;28;19924;-89
2021/11/06 05:10:13;;;;;;;20.08;6.97;;;10.50;99.90;;;;;;5081161;28;20044;-90
2021/11/06 05:12:42;;;;;;;16.60;7.15;;;10.50;99.90;;;;;;5065045;28;20506;-89
2021/11/06 05:15:12;;;;;;;12.07;6.00;;;10.50;99.90;;;;;;5042266;28;20060;-90
2021/11/06 05:17:40;;;;;;;17.52;7.15;;;10.50;99.90;;;;;;5057738;28;20053;-88
2021/11/06 05:20:10;;;;;;;15.40;7.40;;;10.50;99.90;;;;;;4709362;28;10000185;-92
2021/11/06 05:22:40;;;;;;;17.88;6.97;;;10.50;99.90;;;;;;5097065;28;20048;-91
2021/11/06 05:25:09;;;;;;;19.52;8.05;;;10.50;99.90;;;;;;5084367;28;20048;-91
2021/11/06 05:27:39;;;;;;;18.65;7.90;;;10.40;99.90;;;;;;5046478;28;20500;-89
2021/11/06 05:30:11;;;;;;;18.67;8.13;;;10.40;99.90;;;;;;5050215;28;20056;-89
2021/11/06 05:32:46;;;;;;;22.60;7.90;;;10.50;99.90;;;;;;5064904;28;20048;-90
2021/11/06 05:35:16;;;;;;;15.45;6.97;;;10.50;99.90;;;;;;5048604;28;20053;-90
2021/11/06 05:37:45;;;;;;;18.50;6.72;;;10.50;99.90;;;;;;5064623;28;20053;-89
2021/11/06 05:40:15;;;;;;;14.32;7.55;;;10.50;99.90;;;;;;5048520;28;20036;-89
2021/11/06 05:42:43;;;;;;;16.10;6.43;;;10.50;99.90;;;;;;5079477;28;20135;-88
2021/11/06 05:45:12;;;;;;;16.77;7.30;;;10.50;99.90;;;;;;5077953;28;20399;-90
2021/11/06 05:47:40;;;;;;;15.48;6.95;;;10.50;99.90;;;;;;5056581;28;20057;-90
2021/11/06 05:50:12;;;;;;;13.48;6.55;;;10.40;99.90;;;;;;5040675;28;20407;-92
2021/11/06 05:52:41;;;;;;;20.65;6.68;;;10.40;99.90;;;;;;5043989;28;20056;-90
2021/11/06 05:55:13;;;;;;;20.90;8.73;;;10.50;99.90;;;;;;5060358;28;20045;-88
2021/11/06 05:57:42;;;;;;;15.65;7.25;;;10.40;99.90;;;;;;5043743;28;20044;-89
2021/11/06 06:00:18;;;;;;;17.13;8.93;;;10.40;99.90;;;;;;5060662;28;20048;-89
2021/11/06 06:02:49;;;;;;;16.75;7.35;;;10.40;99.90;;;;;;5062448;28;20044;-89
2021/11/06 06:05:18;;;;;;;23.30;8.27;;;10.40;99.90;;;;;;5060905;28;20049;-90
2021/11/06 06:07:50;;;;;;;10.85;5.95;;;10.30;99.90;;;;;;5078720;28;20041;-90
2021/11/06 06:10:22;;;;;;;16.20;6.53;;;10.70;99.90;;;;;;5058246;28;20064;-89
2021/11/06 06:12:53;;;;;;;21.20;8.03;;;10.40;99.90;;;;;;5044733;28;20060;-89
2021/11/06 06:15:30;;;;;;;16.20;6.68;;;10.30;99.90;;;;;;5046597;28;20301;-88
2021/11/06 06:17:58;;;;;;;11.52;5.43;;;10.50;99.90;;;;;;5051925;28;20063;-91
2021/11/06 06:20:27;;;;;;;13.45;6.78;;;10.30;99.90;;;;;;5054908;28;20048;-90
2021/11/06 06:23:09;;;;;;;20.08;7.13;;;10.30;99.90;;;;;;5080332;28;20052;-88
2021/11/06 06:25:37;;;;;;;11.38;5.80;;;10.20;99.90;;;;;;5070293;28;20064;-90
2021/11/06 06:28:06;;;;;;;13.80;5.82;;;10.20;99.90;;;;;;5065286;28;20416;-88
2021/11/06 06:30:35;;;;;;;11.68;5.93;;;10.20;99.90;;;;;;5080100;28;20047;-89
2021/11/06 06:33:05;;;;;;;9.63;3.92;;;10.10;99.90;;;;;;5050300;28;20496;-90
2021/11/06 06:35:35;;;;;;;11.83;5.73;;;10.10;99.90;;;;;;5047378;28;20427;-89
2021/11/06 06:38:08;;;;;;;15.80;6.25;;;10.00;99.90;;;;;;5064980;28;20075;-89
2021/11/06 06:40:38;;;;;;;16.05;6.93;;;10.00;99.90;;;;;;5065113;28;20040;-88
2021/11/06 06:43:08;;;;;;;15.73;5.63;;;10.00;99.90;;;;;;5067012;28;20035;-90
2021/11/06 06:45:38;;;;;;;32.35;8.93;;;10.00;99.90;;;;;;5078223;28;20055;-89
2021/11/06 06:48:06;;;;;;;13.68;5.18;;;9.90;99.90;;;;;;5039388;28;20060;-87
2021/11/06 06:50:34;;;;;;;14.07;5.55;;;10.00;99.90;;;;;;5042983;28;20048;-87
2021/11/06 06:53:08;;;;;;;11.05;5.13;;;9.90;99.90;;;;;;5035255;28;20049;-88
2021/11/06 06:55:36;;;;;;;14.35;5.63;;;9.90;99.90;;;;;;5080004;28;20044;-89
2021/11/06 06:58:07;;;;;;;14.07;5.32;;;9.90;99.90;;;;;;5066957;28;20048;-90
2021/11/06 07:00:36;;;;;;;10.00;4.55;;;9.90;99.90;;;;;;5049214;28;20044;-87
2021/11/06 07:03:04;;;;;;;12.63;5.03;;;9.90;99.90;;;;;;5033143;28;20052;-87
2021/11/06 07:05:36;;;;;;;14.57;4.90;;;9.80;99.90;;;;;;5063654;28;20041;-90
2021/11/06 07:08:15;;;;;;;13.48;5.82;;;9.80;99.90;;;;;;5079651;28;20048;-89
2021/11/06 07:10:46;;;;;;;16.60;9.20;;;9.80;99.90;;;;;;5079108;28;20044;-89
2021/11/06 07:13:21;;;;;;;12.60;5.35;;;9.80;99.90;;;;;;5076035;28;20052;-88
2021/11/06 07:15:51;;;;;;;14.95;5.65;;;9.80;99.90;;;;;;5058438;28;20037;-88
2021/11/06 07:18:22;;;;;;;15.35;4.90;;;9.90;99.90;;;;;;5075013;28;20052;-86
2021/11/06 07:20:54;;;;;;;15.07;4.95;;;9.90;99.90;;;;;;5063181;28;20620;-88
2021/11/06 07:23:22;;;;;;;11.73;4.70;;;9.90;99.90;;;;;;5046111;28;20052;-89
2021/11/06 07:25:59;;;;;;;11.18;5.15;;;10.30;99.90;;;;;;5076850;28;20044;-90
2021/11/06 07:28:33;;;;;;;9.27;3.90;;;9.90;99.90;;;;;;5063709;28;20059;-89
2021/11/06 07:31:16;;;;;;;7.78;3.75;;;9.50;99.90;;;;;;5079300;28;20281;-89
2021/11/06 07:33:53;;;;;;;9.90;4.03;;;10.00;99.90;;;;;;5061111;28;20056;-90
2021/11/06 07:36:38;;;;;;;15.23;4.25;;;10.00;99.90;;;;;;5049610;28;20055;-89
2021/11/06 07:39:07;;;;;;;10.45;4.28;;;9.70;99.90;;;;;;5058351;28;20052;-89
2021/11/06 07:41:50;;;;;;;9.90;3.92;;;10.10;99.90;;;;;;5076245;28;20361;-90
2021/11/06 07:44:20;;;;;;;12.20;4.38;;;10.10;99.90;;;;;;5051275;28;20116;-90
2021/11/06 07:46:49;;;;;;;12.95;4.60;;;10.10;99.90;;;;;;5056671;28;20040;-90
2021/11/06 07:49:19;;;;;;;7.60;4.07;;;10.10;99.90;;;;;;5071735;28;20052;-89
2021/11/06 07:51:47;;;;;;;10.20;4.80;;;10.10;99.90;;;;;;5061402;28;20051;-92
2021/11/06 07:54:17;;;;;;;7.30;4.30;;;10.10;99.90;;;;;;5061313;28;20053;-88
2021/11/06 07:56:47;;;;;;;8.35;3.70;;;10.20;99.90;;;;;;5059934;28;20044;-90
2021/11/06 07:59:19;;;;;;;6.57;3.65;;;10.30;99.90;;;;;;5041452;28;20056;-89
2021/11/06 08:01:54;;;;;;;10.43;3.97;;;10.30;99.90;;;;;;5055909;28;20056;-89
2021/11/06 08:04:26;;;;;;;10.05;4.97;;;10.30;99.90;;;;;;5076175;28;20068;-88
2021/11/06 08:06:57;;;;;;;11.05;3.80;;;10.50;99.90;;;;;;5059995;28;20048;-89
2021/11/06 08:09:31;;;;;;;4.88;2.75;;;10.40;99.90;;;;;;5056375;28;20040;-92
2021/11/06 08:12:19;;;;;;;9.00;3.30;;;10.00;99.90;;;;;;5054703;28;20055;-88
2021/11/06 08:14:52;;;;;;;15.25;3.67;;;10.50;99.90;;;;;;5071615;28;20052;-87
2021/11/06 08:17:20;;;;;;;6.35;3.53;;;10.50;99.90;;;;;;5033579;28;20286;-91
2021/11/06 08:19:56;;;;;;;8.32;3.65;;;10.50;99.90;;;;;;5043419;28;20289;-91
2021/11/06 08:22:26;;;;;;;5.03;3.17;;;10.50;99.90;;;;;;5058649;28;20128;-90
2021/11/06 08:24:57;;;;;;;8.77;3.00;;;10.60;99.90;;;;;;5051948;28;20056;-89
2021/11/06 08:27:27;;;;;;;7.25;3.47;;;10.70;99.90;;;;;;5053298;28;20208;-90
2021/11/06 08:29:55;;;;;;;12.25;2.83;;;10.70;99.90;;;;;;5069768;28;20044;-90
2021/11/06 08:32:24;;;;;;;6.57;2.70;;;10.80;99.90;;;;;;5062052;28;20056;-90
2021/11/06 08:34:54;;;;;;;7.65;3.65;;;10.80;99.90;;;;;;5041975;28;20054;-90
2021/11/06 08:37:23;;;;;;;13.30;3.70;;;10.90;99.90;;;;;;5074344;28;20396;-90
2021/11/06 08:39:51;;;;;;;5.45;2.85;;;10.90;99.90;;;;;;5077206;28;20053;-92
2021/11/06 08:42:20;;;;;;;6.45;2.55;;;11.00;99.90;;;;;;5029522;28;20049;-87
2021/11/06 08:44:49;;;;;;;4.55;2.58;;;11.10;99.90;;;;;;5058457;28;20384;-88
2021/11/06 08:47:16;;;;;;;10.40;3.08;;;11.10;99.90;;;;;;5069605;28;21087;-88
2021/11/06 08:49:45;;;;;;;4.32;2.65;;;11.20;99.90;;;;;;5092151;28;20046;-89
2021/11/06 08:52:18;;;;;;;8.55;3.90;;;11.20;99.90;;;;;;5056618;28;20044;-88
2021/11/06 08:54:50;;;;;;;5.88;2.92;;;11.30;99.90;;;;;;5076493;28;20049;-88
2021/11/06 08:57:23;;;;;;;6.57;2.83;;;11.30;99.90;;;;;;5074634;28;20044;-89
2021/11/06 08:59:59;;;;;;;3.42;1.85;;;11.30;99.90;;;;;;5053315;28;20514;-87
2021/11/06 09:02:35;;;;;;;6.50;2.00;;;11.30;99.90;;;;;;5075077;28;20053;-89
2021/11/06 09:05:05;;;;;;;10.07;2.83;;;11.40;99.90;;;;;;5075082;28;20584;-86
2021/11/06 09:07:34;;;;;;;4.13;1.83;;;11.40;99.90;;;;;;5079309;28;20052;-88
2021/11/06 09:10:11;;;;;;;2.33;1.77;;;11.30;99.90;;;;;;5067624;28;20044;-89
2021/11/06 09:12:40;;;;;;;4.15;2.03;;;11.40;99.90;;;;;;5072729;28;20339;-87
2021/11/06 09:15:09;;;;;;;5.45;1.67;;;11.40;99.90;;;;;;5073874;28;20522;-88
2021/11/06 09:17:39;;;;;;;3.20;2.05;;;11.40;99.90;;;;;;5075555;28;20046;-87
2021/11/06 09:20:08;;;;;;;3.35;2.03;;;11.40;99.90;;;;;;5056827;28;20048;-88
2021/11/06 09:22:37;;;;;;;5.05;1.90;;;11.40;99.90;;;;;;5052938;28;20395;-86
2021/11/06 09:25:09;;;;;;;4.22;2.13;;;11.40;99.90;;;;;;5068543;28;20059;-88
2021/11/06 09:27:38;;;;;;;7.13;2.38;;;11.40;99.90;;;;;;5051546;28;20366;-85
2021/11/06 09:30:10;;;;;;;4.03;1.70;;;11.40;99.90;;;;;;5069575;28;20037;-88
2021/11/06 09:32:41;;;;;;;4.18;2.10;;;11.20;99.90;;;;;;5072414;28;20484;-86
2021/11/06 09:35:12;;;;;;;2.05;1.50;;;11.40;99.90;;;;;;5074679;28;20071;-88
2021/11/06 09:37:42;;;;;;;4.13;1.92;;;11.50;99.90;;;;;;5075510;28;20112;-87
2021/11/06 09:40:12;;;;;;;3.95;1.70;;;11.50;99.90;;;;;;5056866;28;20055;-86
2021/11/06 09:42:41;;;;;;;8.73;2.83;;;11.50;99.90;;;;;;5056625;28;20609;-87
2021/11/06 09:45:12;;;;;;;2.88;1.67;;;11.50;99.90;;;;;;5076008;28;20052;-87
2021/11/06 09:47:45;;;;;;;9.35;1.75;;;11.40;99.90;;;;;;5071421;28;20064;-87
2021/11/06 09:50:19;;;;;;;4.28;2.17;;;11.60;99.90;;;;;;5075841;28;20045;-89
2021/11/06 09:52:48;;;;;;;4.35;2.40;;;11.50;99.90;;;;;;5064085;28;20051;-86
2021/11/06 09:55:20;;;;;;;5.80;1.85;;;11.70;99.90;;;;;;5050675;28;20047;-90
2021/11/06 09:57:49;;;;;;;7.40;2.45;;;11.80;99.90;;;;;;5074835;28;20040;-87
2021/11/06 10:00:20;;;;;;;2.78;1.75;;;11.80;99.90;;;;;;5078443;28;20045;-90
2021/11/06 10:02:56;;;;;;;7.30;2.83;;;11.90;99.90;;;;;;5047577;28;20055;-88
2021/11/06 10:05:59;;;;;;;6.65;2.10;;;12.00;99.90;;;;;;5059785;28;20051;-89
2021/11/06 10:08:36;;;;;;;2.47;1.95;;;12.00;99.90;;;;;;5075915;28;20044;-87
2021/11/06 10:11:09;;;;;;;3.75;1.83;;;12.10;99.90;;;;;;5071971;28;20040;-88
2021/11/06 10:13:58;;;;;;;10.07;3.60;;;12.20;99.90;;;;;;5041083;28;20041;-86
2021/11/06 10:16:39;;;;;;;6.03;1.85;;;12.20;99.90;;;;;;5075017;28;20041;-88
2021/11/06 10:19:19;;;;;;;4.28;1.80;;;12.30;99.90;;;;;;4716812;28;10000231;-87
2021/11/06 10:22:11;;;;;;;3.60;1.63;;;12.30;99.90;;;;;;5069524;28;20048;-87
2021/11/06 10:25:02;;;;;;;6.00;2.03;;;12.40;99.90;;;;;;5075860;28;20041;-86
2021/11/06 10:27:33;;;;;;;4.60;2.17;;;13.10;99.90;;;;;;5053337;28;20045;-87
2021/11/06 10:30:19;;;;;;;5.72;2.10;;;12.40;99.90;;;;;;5077327;28;20488;-87
2021/11/06 10:33:13;;;;;;;3.85;1.88;;;12.50;99.90;;;;;;5053701;28;20037;-89
2021/11/06 10:36:02;;;;;;;5.85;2.65;;;12.50;99.90;;;;;;5069445;28;20051;-88
2021/11/06 10:38:31;;;;;;;4.38;2.60;;;12.50;99.90;;;;;;5076334;28;20044;-88
2021/11/06 10:41:07;;;;;;;4.65;2.30;;;12.60;99.90;;;;;;5075772;28;20487;-87
2021/11/06 10:43:38;;;;;;;7.65;3.30;;;12.70;99.90;;;;;;5071624;28;20401;-86
2021/11/06 10:46:10;;;;;;;12.85;5.70;;;12.80;99.90;;;;;;5056971;28;20036;-87
2021/11/06 10:48:39;;;;;;;6.90;2.08;;;13.10;99.90;;;;;;5073945;28;20048;-86
2021/11/06 10:51:09;;;;;;;10.23;2.58;;;12.90;99.90;;;;;;5072761;28;20048;-88
2021/11/06 10:53:48;;;;;;;6.20;2.28;;;13.00;99.90;;;;;;5055693;28;20695;-88
2021/11/06 10:56:41;;;;;;;9.02;1.80;;;13.00;99.90;;;;;;5073538;28;20040;-86
2021/11/06 10:59:14;;;;;;;3.30;1.73;;;13.00;99.90;;;;;;5071980;28;20051;-88
2021/11/06 11:01:45;;;;;;;3.92;1.55;;;13.00;99.90;;;;;;5072578;28;20044;-87
2021/11/06 11:04:18;;;;;;;5.82;2.20;;;13.00;99.90;;;;;;5055594;28;20057;-90
2021/11/06 11:06:54;;;;;;;3.40;2.03;;;13.00;99.90;;;;;;5069324;28;20056;-87
2021/11/06 11:09:37;;;;;;;3.53;1.77;;;13.00;99.90;;;;;;5070429;28;20040;-89
2021/11/06 11:12:17;;;;;;;3.30;1.40;;;13.00;99.90;;;;;;5054170;28;20045;-87
2021/11/06 11:15:05;;;;;;;4.95;2.00;;;13.00;99.90;;;;;;5087625;28;20051;-87
2021/11/06 11:17:42;;;;;;;7.32;1.73;;;12.90;99.90;;;;;;5066330;28;20056;-88
2021/11/06 11:20:26;;;;;;;5.70;1.63;;;13.00;99.90;;;;;;5054266;28;20075;-87
2021/11/06 11:23:18;;;;;;;3.47;1.88;;;13.00;99.90;;;;;;5061163;28;20067;-88
2021/11/06 11:25:47;;;;;;;2.40;1.33;;;12.90;99.90;;;;;;5068202;28;20049;-87
2021/11/06 11:28:15;;;;;;;10.00;1.88;;;12.90;99.90;;;;;;5071484;28;20381;-88
2021/11/06 11:30:43;;;;;;;4.53;1.30;;;12.90;99.90;;;;;;5055525;28;20044;-87
2021/11/06 11:33:28;;;;;;;3.15;1.75;;;12.90;99.90;;;;;;5051055;28;20040;-87
2021/11/06 11:36:00;;;;;;;8.65;1.52;;;12.90;99.90;;;;;;5057168;28;20048;-87
2021/11/06 11:38:30;;;;;;;107.65;15.95;;;13.00;99.90;;;;;;5052501;28;20044;-87
2021/11/06 11:41:06;;;;;;;3.97;1.88;;;13.00;99.90;;;;;;5073937;28;20044;-87
2021/11/06 11:44:16;;;;;;;4.35;1.80;;;13.10;99.90;;;;;;5064470;28;20049;-88
2021/11/06 11:47:06;;;;;;;6.22;1.65;;;13.10;99.90;;;;;;5030916;28;20047;-88
2021/11/06 11:49:36;;;;;;;5.78;3.28;;;13.20;99.90;;;;;;5051093;28;20056;-89
2021/11/06 11:52:34;;;;;;;5.93;1.58;;;13.30;99.90;;;;;;5048180;28;20048;-90
2021/11/06 11:55:06;;;;;;;1.90;1.65;;;13.40;99.90;;;;;;5061833;28;20048;-88
2021/11/06 11:57:36;;;;;;;2.75;1.60;;;13.50;99.90;;;;;;5061937;28;20059;-88
2021/11/06 12:00:24;;;;;;;7.03;1.48;;;13.50;99.90;;;;;;5053024;28;20052;-88
2021/11/06 12:03:00;;;;;;;10.15;2.15;;;13.60;99.90;;;;;;5014963;28;20048;-88
2021/11/06 12:05:36;;;;;;;10.15;2.67;;;13.50;99.90;;;;;;5040427;28;20045;-88
2021/11/06 12:08:15;;;;;;;4.22;1.70;;;13.50;99.90;;;;;;5067814;28;20049;-88
2021/11/06 12:11:00;;;;;;;3.58;1.65;;;13.50;99.90;;;;;;5065352;28;20052;-90
2021/11/06 12:13:30;;;;;;;3.15;1.73;;;13.50;99.90;;;;;;5051313;28;20048;-89
2021/11/06 12:16:10;;;;;;;4.03;1.90;;;13.50;99.90;;;;;;5071229;28;20056;-89
2021/11/06 12:18:54;;;;;;;3.17;1.80;;;13.50;99.90;;;;;;5067250;28;20052;-86
2021/11/06 12:21:32;;;;;;;6.72;1.83;;;13.60;99.90;;;;;;5086714;28;20068;-87
2021/11/06 12:24:12;;;;;;;2.75;1.08;;;13.60;99.90;;;;;;5065679;28;20060;-86
2021/11/06 12:26:54;;;;;;;2.97;1.40;;;13.70;99.90;;;;;;5053406;28;20045;-87
2021/11/06 12:29:26;;;;;;;2.70;1.40;;;13.70;99.90;;;;;;5068969;28;20499;-86
2021/11/06 12:32:31;;;;;;;5.05;1.35;;;13.70;99.90;;;;;;5068700;28;20032;-86
2021/11/06 12:35:19;;;;;;;1.23;0.82;;;13.70;99.90;;;;;;5068347;28;20075;-87
2021/11/06 12:38:04;;;;;;;3.47;1.30;;;13.70;99.90;;;;;;5062345;28;20044;-87
2021/11/06 12:40:51;;;;;;;8.63;1.40;;;13.70;99.90;;;;;;5058207;28;20052;-86
2021/11/06 12:43:31;;;;;;;1.52;1.00;;;13.70;99.90;;;;;;5056348;28;20048;-86
2021/11/06 12:46:25;;;;;;;4.00;1.27;;;13.80;99.90;;;;;;5053281;28;20045;-87
2021/11/06 12:49:02;;;;;;;4.55;2.30;;;13.60;99.90;;;;;;5055886;28;20059;-90
2021/11/06 12:51:49;;;;;;;2.78;1.65;;;13.60;99.90;;;;;;5075800;28;20055;-86
2021/11/06 12:54:21;;;;;;;2.58;1.08;;;13.60;99.90;;;;;;5073662;28;20060;-90
2021/11/06 12:56:55;;;;;;;4.15;1.50;;;13.60;99.90;;;;;;5069425;28;20048;-89
2021/11/06 12:59:25;;;;;;;2.97;1.33;;;13.60;99.90;;;;;;5058191;28;20049;-87
2021/11/06 13:02:05;;;;;;;2.25;1.33;;;13.60;99.90;;;;;;5072685;28;20052;-85
2021/11/06 13:04:35;;;;;;;8.45;2.03;;;13.60;99.90;;;;;;5055430;28;20058;-86
2021/11/06 13:07:04;;;;;;;2.45;1.48;;;13.60;99.90;;;;;;5068689;28;20049;-87
2021/11/06 13:09:35;;;;;;;6.30;1.48;;;13.50;99.90;;;;;;5070936;28;20066;-86
2021/11/06 13:12:13;;;;;;;4.28;0.88;;;13.50;99.90;;;;;;5083559;28;20041;-88